createdAt,value
2016-03-20T00:00:36.367Z,7.37
2016-03-20T00:01:36.354Z,7.27
2016-03-20T00:02:36.357Z,7.27
2016-03-20T00:03:36.360Z,7.25
2016-03-20T00:04:36.362Z,7.32
2016-03-20T00:05:36.334Z,7.3
2016-03-20T00:06:36.336Z,7.27
2016-03-20T00:07:36.323Z,7.31
2016-03-20T00:08:36.325Z,7.25
2016-03-20T00:09:36.297Z,7.27
2016-03-20T00:10:36.300Z,7.27
2016-03-20T00:11:36.288Z,7.28
2016-03-20T00:12:36.274Z,7.27
2016-03-20T00:13:36.261Z,7.32
2016-03-20T00:14:36.279Z,7.27
2016-03-20T00:15:36.267Z,7.25
2016-03-20T00:16:36.269Z,7.34
2016-03-20T00:17:36.241Z,7.31
2016-03-20T00:18:36.243Z,7.32
2016-03-20T00:19:36.231Z,7.23
2016-03-20T00:20:36.249Z,7.17
2016-03-20T00:21:36.236Z,7.25
2016-03-20T00:22:36.238Z,7.24
2016-03-20T00:23:36.210Z,7.23
2016-03-20T00:24:36.212Z,7.17
2016-03-20T00:25:36.200Z,7.12
2016-03-20T00:26:36.187Z,7.23
2016-03-20T00:27:36.174Z,7.24
2016-03-20T00:28:37.348Z,7.25
2016-03-20T00:29:36.929Z,7.3
2016-03-20T00:30:36.167Z,7.27
2016-03-20T00:31:36.309Z,7.25
2016-03-20T00:32:37.390Z,7.25
2016-03-20T00:33:38.315Z,7.17
2016-03-20T00:34:36.130Z,7.23
2016-03-20T00:35:36.133Z,7.23
2016-03-20T00:36:36.933Z,7.23
2016-03-20T00:37:36.248Z,7.17
2016-03-20T00:39:36.113Z,7.24
2016-03-20T00:40:36.100Z,7.21
2016-03-20T00:41:36.447Z,7.15
2016-03-20T00:42:50.292Z,7.15
2016-03-20T00:43:37.624Z,7.15
2016-03-20T00:44:36.547Z,7.17
2016-03-20T00:45:37.097Z,7.21
2016-03-20T00:46:36.069Z,7.17
2016-03-20T00:47:36.055Z,7.17
2016-03-20T00:48:36.075Z,7.2
2016-03-20T00:49:36.030Z,7.16
2016-03-20T00:50:36.033Z,7.27
2016-03-20T00:51:36.020Z,7.24
2016-03-20T00:52:36.023Z,7.23
2016-03-20T00:53:35.993Z,7.17
2016-03-20T00:54:35.996Z,7.21
2016-03-20T00:55:35.984Z,7.23
2016-03-20T00:56:36.002Z,7.15
2016-03-20T00:57:35.989Z,7.2
2016-03-20T00:58:35.976Z,7.17
2016-03-20T00:59:35.963Z,7.23
2016-03-20T01:00:35.966Z,7.16
2016-03-20T01:01:35.968Z,7.15
2016-03-20T01:02:35.956Z,7.17
2016-03-20T01:03:35.943Z,7.17
2016-03-20T01:04:35.930Z,7.23
2016-03-20T01:05:35.933Z,7.17
2016-03-20T01:06:35.936Z,7.17
2016-03-20T01:07:35.939Z,7.24
2016-03-20T01:08:35.925Z,7.17
2016-03-20T01:09:35.896Z,7.09
2016-03-20T01:10:35.884Z,7.13
2016-03-20T01:11:35.870Z,7.16
2016-03-20T01:12:35.889Z,7.24
2016-03-20T01:13:35.860Z,7.21
2016-03-20T01:14:35.878Z,7.2
2016-03-20T01:15:35.850Z,7.17
2016-03-20T01:16:35.852Z,7.13
2016-03-20T01:17:35.840Z,7.09
2016-03-20T01:18:35.843Z,7.13
2016-03-20T01:19:35.830Z,7.15
2016-03-20T01:20:35.832Z,7.12
2016-03-20T01:21:35.819Z,7.02
2016-03-20T01:22:35.806Z,7.02
2016-03-20T01:23:35.793Z,7.07
2016-03-20T01:24:35.780Z,7.16
2016-03-20T01:25:35.799Z,6.99
2016-03-20T01:26:35.786Z,7.09
2016-03-20T01:27:35.773Z,7.17
2016-03-20T01:28:35.776Z,7.13
2016-03-20T01:29:35.763Z,7.15
2016-03-20T01:30:35.782Z,7.07
2016-03-20T01:31:35.737Z,7.17
2016-03-20T01:32:35.771Z,7.13
2016-03-20T01:33:35.727Z,7.21
2016-03-20T01:34:35.729Z,7.15
2016-03-20T01:35:35.716Z,7.17
2016-03-20T01:36:35.734Z,7.16
2016-03-20T01:37:35.706Z,7.12
2016-03-20T01:38:35.693Z,7.15
2016-03-20T01:39:35.711Z,7.17
2016-03-20T01:40:35.699Z,7.15
2016-03-20T01:41:35.686Z,7.17
2016-03-20T01:42:35.658Z,7.12
2016-03-20T01:43:35.660Z,7.13
2016-03-20T01:44:35.678Z,7.16
2016-03-20T01:45:35.649Z,7.2
2016-03-20T01:46:35.636Z,7.17
2016-03-20T01:47:34.921Z,7.16
2016-03-20T01:48:36.391Z,7.15
2016-03-20T01:49:35.644Z,7.2
2016-03-20T01:50:35.741Z,7.21
2016-03-20T01:51:36.103Z,7.2
2016-03-20T01:52:36.388Z,7.15
2016-03-20T01:53:35.640Z,7.15
2016-03-20T01:54:35.580Z,7.17
2016-03-20T01:55:35.583Z,7.16
2016-03-20T01:56:35.710Z,7.16
2016-03-20T01:57:36.509Z,7.15
2016-03-20T01:58:35.591Z,7.1
2016-03-20T01:59:35.562Z,7.03
2016-03-20T02:00:35.815Z,7.16
2016-03-20T02:01:38.004Z,7.06
2016-03-20T02:02:37.195Z,7.03
2016-03-20T02:03:35.932Z,7.17
2016-03-20T02:04:36.513Z,7.05
2016-03-20T02:05:36.407Z,7.03
2016-03-20T02:06:35.362Z,7.02
2016-03-20T02:07:35.505Z,7.07
2016-03-20T02:08:35.523Z,7.16
2016-03-20T02:09:35.542Z,7.1
2016-03-20T02:10:35.498Z,7.07
2016-03-20T02:11:35.486Z,6.98
2016-03-20T02:12:35.473Z,7.03
2016-03-20T02:13:35.444Z,7.12
2016-03-20T02:14:35.462Z,7.09
2016-03-20T02:15:35.511Z,7.12
2016-03-20T02:16:35.436Z,7.13
2016-03-20T02:17:35.423Z,6.95
2016-03-20T02:18:35.425Z,7.05
2016-03-20T02:19:35.413Z,7.09
2016-03-20T02:20:35.430Z,7.1
2016-03-20T02:21:35.418Z,7.09
2016-03-20T02:22:35.405Z,7.1
2016-03-20T02:23:35.393Z,7.1
2016-03-20T02:24:35.396Z,7.16
2016-03-20T02:25:35.398Z,7.06
2016-03-20T02:26:35.369Z,7.12
2016-03-20T02:27:35.388Z,7.09
2016-03-20T02:28:35.359Z,7.12
2016-03-20T02:29:35.330Z,7.09
2016-03-20T02:30:35.365Z,7.09
2016-03-20T02:31:35.320Z,7.06
2016-03-20T02:32:35.338Z,7.09
2016-03-20T02:33:35.326Z,7.12
2016-03-20T02:34:35.312Z,7.1
2016-03-20T02:35:35.143Z,7.07
2016-03-20T02:36:35.303Z,7.1
2016-03-20T02:37:35.321Z,7.03
2016-03-20T02:38:35.292Z,7.1
2016-03-20T02:39:35.279Z,7.1
2016-03-20T02:40:35.298Z,6.98
2016-03-20T02:41:35.269Z,7.07
2016-03-20T02:42:35.287Z,7.15
2016-03-20T02:43:35.242Z,7.05
2016-03-20T02:44:35.245Z,7.12
2016-03-20T02:45:35.264Z,7.1
2016-03-20T02:46:35.235Z,7.16
2016-03-20T02:47:35.239Z,6.98
2016-03-20T02:48:35.225Z,7.05
2016-03-20T02:49:35.213Z,6.98
2016-03-20T02:50:35.199Z,6.92
2016-03-20T02:51:35.186Z,6.99
2016-03-20T02:52:35.189Z,7.03
2016-03-20T02:53:35.191Z,6.99
2016-03-20T02:54:35.179Z,6.99
2016-03-20T02:55:35.166Z,6.94
2016-03-20T02:56:35.185Z,6.87
2016-03-20T02:57:35.155Z,6.87
2016-03-20T02:58:35.158Z,7.03
2016-03-20T02:59:35.145Z,6.84
2016-03-20T03:00:35.149Z,6.99
2016-03-20T03:01:35.135Z,7.02
2016-03-20T03:02:35.137Z,7.03
2016-03-20T03:03:35.110Z,6.94
2016-03-20T03:04:35.112Z,6.85
2016-03-20T03:05:35.099Z,6.92
2016-03-20T03:06:36.405Z,6.88
2016-03-20T03:07:35.970Z,6.95
2016-03-20T03:08:35.083Z,6.98
2016-03-20T03:09:35.414Z,6.95
2016-03-20T03:10:37.869Z,6.89
2016-03-20T03:11:36.060Z,6.84
2016-03-20T03:12:36.578Z,6.87
2016-03-20T03:13:36.330Z,6.88
2016-03-20T03:14:35.255Z,6.85
2016-03-20T03:15:35.789Z,6.85
2016-03-20T03:16:36.026Z,6.95
2016-03-20T03:17:35.013Z,6.94
2016-03-20T03:18:35.016Z,6.8
2016-03-20T03:19:35.252Z,6.84
2016-03-20T03:20:36.240Z,6.85
2016-03-20T03:21:35.508Z,6.85
2016-03-20T03:22:35.010Z,6.84
2016-03-20T03:23:35.388Z,6.87
2016-03-20T03:24:35.548Z,6.8
2016-03-20T03:25:34.972Z,6.85
2016-03-20T03:26:35.382Z,6.84
2016-03-20T03:27:34.978Z,6.8
2016-03-20T03:28:34.949Z,6.8
2016-03-20T03:29:34.936Z,6.8
2016-03-20T03:30:34.907Z,6.8
2016-03-20T03:31:34.925Z,6.71
2016-03-20T03:32:34.913Z,6.7
2016-03-20T03:33:34.900Z,6.71
2016-03-20T03:34:34.887Z,6.69
2016-03-20T03:35:34.905Z,6.69
2016-03-20T03:36:34.877Z,6.7
2016-03-20T03:37:34.880Z,6.76
2016-03-20T03:38:34.883Z,6.69
2016-03-20T03:39:34.869Z,6.71
2016-03-20T03:40:34.855Z,6.74
2016-03-20T03:41:34.859Z,6.76
2016-03-20T03:42:34.846Z,6.69
2016-03-20T03:43:34.833Z,6.69
2016-03-20T03:44:34.819Z,6.71
2016-03-20T03:45:34.838Z,6.69
2016-03-20T03:46:34.794Z,6.7
2016-03-20T03:47:34.813Z,6.66
2016-03-20T03:48:34.784Z,6.59
2016-03-20T03:49:34.802Z,6.62
2016-03-20T03:50:34.790Z,6.64
2016-03-20T03:51:34.776Z,6.58
2016-03-20T03:52:34.796Z,6.58
2016-03-20T03:53:34.766Z,6.58
2016-03-20T03:54:34.754Z,6.52
2016-03-20T03:55:34.740Z,6.48
2016-03-20T03:56:34.743Z,6.51
2016-03-20T03:57:34.746Z,6.54
2016-03-20T03:58:34.717Z,6.58
2016-03-20T03:59:34.720Z,6.51
2016-03-20T04:00:34.706Z,6.48
2016-03-20T04:01:34.710Z,6.54
2016-03-20T04:02:34.702Z,6.48
2016-03-20T04:03:34.689Z,6.44
2016-03-20T04:04:34.675Z,6.46
2016-03-20T04:05:34.694Z,6.34
2016-03-20T04:06:34.353Z,6.37
2016-03-20T04:07:34.668Z,6.31
2016-03-20T04:08:34.655Z,6.3
2016-03-20T04:09:34.641Z,6.34
2016-03-20T04:10:34.644Z,6.3
2016-03-20T04:11:34.617Z,6.33
2016-03-20T04:12:34.619Z,6.3
2016-03-20T04:13:34.606Z,6.31
2016-03-20T04:14:34.610Z,6.27
2016-03-20T04:15:34.612Z,6.34
2016-03-20T04:16:34.629Z,6.34
2016-03-20T04:17:34.601Z,6.34
2016-03-20T04:18:34.557Z,6.27
2016-03-20T04:19:34.575Z,6.36
2016-03-20T04:20:34.563Z,6.28
2016-03-20T04:21:34.549Z,6.36
2016-03-20T04:22:34.551Z,6.28
2016-03-20T04:23:34.540Z,6.28
2016-03-20T04:24:34.526Z,6.34
2016-03-20T04:25:35.794Z,6.38
2016-03-20T04:26:35.423Z,6.37
2016-03-20T04:27:34.509Z,6.17
2016-03-20T04:28:34.670Z,6.33
2016-03-20T04:29:36.504Z,6.25
2016-03-20T04:30:34.447Z,6.25
2016-03-20T04:31:34.453Z,6.25
2016-03-20T04:32:34.418Z,6.3
2016-03-20T04:33:35.228Z,6.3
2016-03-20T04:34:34.540Z,6.31
2016-03-20T04:35:35.303Z,6.3
2016-03-20T04:36:34.348Z,6.36
2016-03-20T04:37:34.349Z,6.31
2016-03-20T04:38:34.678Z,6.31
2016-03-20T04:39:34.336Z,6.27
2016-03-20T04:40:36.008Z,6.21
2016-03-20T04:41:34.838Z,6.33
2016-03-20T04:42:35.371Z,6.33
2016-03-20T04:43:34.295Z,6.38
2016-03-20T04:44:34.312Z,6.4
2016-03-20T04:45:34.391Z,6.33
2016-03-20T04:46:34.315Z,6.38
2016-03-20T04:47:34.256Z,6.36
2016-03-20T04:48:34.243Z,6.4
2016-03-20T04:49:34.230Z,6.37
2016-03-20T04:50:34.264Z,6.34
2016-03-20T04:51:34.220Z,6.4
2016-03-20T04:52:34.238Z,6.3
2016-03-20T04:53:34.225Z,6.28
2016-03-20T04:54:34.197Z,6.31
2016-03-20T04:55:34.214Z,6.36
2016-03-20T04:56:34.203Z,6.31
2016-03-20T04:57:34.189Z,6.34
2016-03-20T04:58:34.175Z,6.21
2016-03-20T04:59:34.164Z,6.22
2016-03-20T05:00:34.166Z,6.19
2016-03-20T05:01:34.152Z,6.34
2016-03-20T05:02:34.172Z,6.34
2016-03-20T05:03:34.143Z,6.37
2016-03-20T05:04:34.130Z,6.37
2016-03-20T05:05:34.149Z,6.38
2016-03-20T05:06:34.119Z,6.38
2016-03-20T05:07:34.106Z,6.34
2016-03-20T05:08:34.125Z,6.34
2016-03-20T05:09:34.080Z,6.31
2016-03-20T05:10:34.098Z,6.28
2016-03-20T05:11:34.055Z,6.28
2016-03-20T05:12:34.057Z,6.38
2016-03-20T05:13:34.076Z,6.3
2016-03-20T05:14:34.063Z,6.34
2016-03-20T05:15:34.050Z,6.38
2016-03-20T05:16:34.053Z,6.37
2016-03-20T05:17:34.056Z,6.34
2016-03-20T05:18:34.042Z,6.4
2016-03-20T05:19:34.014Z,6.36
2016-03-20T05:20:34.017Z,6.37
2016-03-20T05:21:34.035Z,6.37
2016-03-20T05:22:34.006Z,6.38
2016-03-20T05:23:33.993Z,6.36
2016-03-20T05:24:33.981Z,6.33
2016-03-20T05:25:33.967Z,6.34
2016-03-20T05:26:33.986Z,6.31
2016-03-20T05:27:33.957Z,6.31
2016-03-20T05:28:33.944Z,6.31
2016-03-20T05:29:33.962Z,6.46
2016-03-20T05:30:33.950Z,6.43
2016-03-20T05:31:33.952Z,6.41
2016-03-20T05:32:33.924Z,6.49
2016-03-20T05:33:33.927Z,6.44
2016-03-20T05:34:33.897Z,6.49
2016-03-20T05:35:33.900Z,6.51
2016-03-20T05:36:33.903Z,6.41
2016-03-20T05:37:33.890Z,6.44
2016-03-20T05:38:33.893Z,6.48
2016-03-20T05:39:33.880Z,6.51
2016-03-20T05:40:33.867Z,6.58
2016-03-20T05:41:33.886Z,6.54
2016-03-20T05:42:33.841Z,6.49
2016-03-20T05:43:33.859Z,6.59
2016-03-20T05:44:35.050Z,6.55
2016-03-20T05:45:34.584Z,6.67
2016-03-20T05:46:33.851Z,6.64
2016-03-20T05:47:33.839Z,6.7
2016-03-20T05:48:36.107Z,6.67
2016-03-20T05:49:34.329Z,6.7
2016-03-20T05:50:34.988Z,6.71
2016-03-20T05:51:34.459Z,6.7
2016-03-20T05:52:33.915Z,6.73
2016-03-20T05:53:33.949Z,6.69
2016-03-20T05:54:35.655Z,6.7
2016-03-20T05:56:33.910Z,6.55
2016-03-20T05:57:33.741Z,6.59
2016-03-20T05:58:34.322Z,6.56
2016-03-20T05:59:33.747Z,6.66
2016-03-20T06:00:34.874Z,6.71
2016-03-20T06:01:33.720Z,6.74
2016-03-20T06:02:33.708Z,6.56
2016-03-20T06:03:34.272Z,6.58
2016-03-20T06:04:33.713Z,6.54
2016-03-20T06:05:33.684Z,6.55
2016-03-20T06:06:33.688Z,6.64
2016-03-20T06:07:33.674Z,6.56
2016-03-20T06:08:33.677Z,6.69
2016-03-20T06:09:33.696Z,6.66
2016-03-20T06:10:33.635Z,6.71
2016-03-20T06:11:33.654Z,6.69
2016-03-20T06:12:33.624Z,6.7
2016-03-20T06:13:33.627Z,6.76
2016-03-20T06:14:33.629Z,6.66
2016-03-20T06:15:33.618Z,6.76
2016-03-20T06:16:33.604Z,6.7
2016-03-20T06:17:33.607Z,6.71
2016-03-20T06:18:33.595Z,6.7
2016-03-20T06:19:33.597Z,6.74
2016-03-20T06:20:33.584Z,6.73
2016-03-20T06:21:33.587Z,6.71
2016-03-20T06:22:33.386Z,6.77
2016-03-20T06:23:33.561Z,6.81
2016-03-20T06:24:33.547Z,6.79
2016-03-20T06:25:33.550Z,6.77
2016-03-20T06:26:33.553Z,6.81
2016-03-20T06:27:33.525Z,6.79
2016-03-20T06:28:33.527Z,6.85
2016-03-20T06:29:33.530Z,6.88
2016-03-20T06:30:33.502Z,6.88
2016-03-20T06:31:33.505Z,6.84
2016-03-20T06:32:33.492Z,6.88
2016-03-20T06:33:33.478Z,6.87
2016-03-20T06:34:33.481Z,6.85
2016-03-20T06:35:33.469Z,6.85
2016-03-20T06:36:33.471Z,6.85
2016-03-20T06:37:33.457Z,6.87
2016-03-20T06:38:33.444Z,6.89
2016-03-20T06:39:33.447Z,6.87
2016-03-20T06:40:33.450Z,6.92
2016-03-20T06:41:33.452Z,6.95
2016-03-20T06:42:33.440Z,7.15
2016-03-20T06:43:33.396Z,7.07
2016-03-20T06:44:33.430Z,7.02
2016-03-20T06:45:33.401Z,7.05
2016-03-20T06:46:33.388Z,7.17
2016-03-20T06:47:33.376Z,7.17
2016-03-20T06:48:33.379Z,7.27
2016-03-20T06:49:33.381Z,7.27
2016-03-20T06:50:33.383Z,7.42
2016-03-20T06:51:33.371Z,7.4
2016-03-20T06:52:33.357Z,7.5
2016-03-20T06:53:33.360Z,7.52
2016-03-20T06:54:33.363Z,7.6
2016-03-20T06:55:33.350Z,7.67
2016-03-20T06:56:33.337Z,7.71
2016-03-20T06:57:33.309Z,7.82
2016-03-20T06:58:33.311Z,7.83
2016-03-20T06:59:33.330Z,7.92
2016-03-20T07:00:33.301Z,7.93
2016-03-20T07:01:33.303Z,7.89
2016-03-20T07:02:33.306Z,8
2016-03-20T07:03:34.137Z,7.97
2016-03-20T07:04:34.296Z,8
2016-03-20T07:05:33.283Z,7.98
2016-03-20T07:06:33.302Z,7.89
2016-03-20T07:07:34.210Z,7.87
2016-03-20T07:08:33.697Z,7.83
2016-03-20T07:09:34.294Z,7.8
2016-03-20T07:10:33.968Z,7.75
2016-03-20T07:11:33.628Z,7.64
2016-03-20T07:12:33.224Z,7.67
2016-03-20T07:13:34.883Z,7.68
2016-03-20T07:14:34.776Z,7.57
2016-03-20T07:15:33.966Z,7.52
2016-03-20T07:16:33.219Z,7.58
2016-03-20T07:17:33.456Z,7.6
2016-03-20T07:18:33.209Z,7.52
2016-03-20T07:19:34.789Z,7.43
2016-03-20T07:20:33.183Z,7.4
2016-03-20T07:21:33.467Z,7.46
2016-03-20T07:22:33.642Z,7.42
2016-03-20T07:23:33.190Z,7.39
2016-03-20T07:24:33.162Z,7.39
2016-03-20T07:25:33.150Z,7.32
2016-03-20T07:26:33.183Z,7.39
2016-03-20T07:27:33.155Z,7.31
2016-03-20T07:28:33.142Z,7.31
2016-03-20T07:29:33.191Z,7.32
2016-03-20T07:30:33.131Z,7.24
2016-03-20T07:31:33.134Z,7.27
2016-03-20T07:32:33.105Z,7.24
2016-03-20T07:33:33.125Z,7.28
2016-03-20T07:34:33.127Z,7.25
2016-03-20T07:35:33.097Z,7.3
2016-03-20T07:36:33.101Z,7.31
2016-03-20T07:37:33.091Z,7.3
2016-03-20T07:38:33.249Z,7.28
2016-03-20T07:39:33.331Z,7.39
2016-03-20T07:40:33.083Z,7.4
2016-03-20T07:41:33.038Z,7.39
2016-03-20T07:42:33.042Z,7.28
2016-03-20T07:43:33.044Z,7.31
2016-03-20T07:44:33.047Z,7.32
2016-03-20T07:45:33.035Z,7.3
2016-03-20T07:46:33.037Z,7.3
2016-03-20T07:47:33.008Z,7.4
2016-03-20T07:48:33.027Z,7.42
2016-03-20T07:49:32.998Z,7.43
2016-03-20T07:50:33.001Z,7.48
2016-03-20T07:51:33.004Z,7.42
2016-03-20T07:52:33.021Z,7.43
2016-03-20T07:53:32.994Z,7.39
2016-03-20T07:54:32.980Z,7.49
2016-03-20T07:55:32.967Z,7.53
2016-03-20T07:56:32.986Z,7.49
2016-03-20T07:57:32.942Z,7.52
2016-03-20T07:58:32.945Z,7.57
2016-03-20T07:59:32.931Z,7.58
2016-03-20T08:00:32.950Z,7.68
2016-03-20T08:01:32.936Z,7.64
2016-03-20T08:02:32.924Z,7.69
2016-03-20T08:03:32.942Z,7.77
2016-03-20T08:04:32.913Z,7.82
2016-03-20T08:05:32.901Z,7.87
2016-03-20T08:06:32.887Z,7.9
2016-03-20T08:07:32.890Z,7.89
2016-03-20T08:08:32.892Z,7.95
2016-03-20T08:09:32.880Z,7.87
2016-03-20T08:10:32.883Z,7.95
2016-03-20T08:11:32.869Z,7.95
2016-03-20T08:12:32.857Z,7.92
2016-03-20T08:13:32.875Z,7.89
2016-03-20T08:14:32.894Z,7.86
2016-03-20T08:15:32.865Z,7.92
2016-03-20T08:16:32.836Z,7.97
2016-03-20T08:17:32.838Z,7.97
2016-03-20T08:18:32.826Z,7.9
2016-03-20T08:19:32.829Z,7.98
2016-03-20T08:20:32.816Z,7.97
2016-03-20T08:21:32.834Z,7.95
2016-03-20T08:22:33.555Z,7.98
2016-03-20T08:23:33.793Z,8
2016-03-20T08:24:32.795Z,8.02
2016-03-20T08:25:32.782Z,8.04
2016-03-20T08:27:33.256Z,7.93
2016-03-20T08:28:33.869Z,8
2016-03-20T08:29:33.621Z,8.02
2016-03-20T08:30:33.343Z,7.98
2016-03-20T08:31:32.751Z,7.98
2016-03-20T08:32:34.536Z,8.01
2016-03-20T08:33:34.367Z,7.98
2016-03-20T08:34:33.572Z,8.01
2016-03-20T08:35:32.731Z,7.95
2016-03-20T08:36:33.312Z,8.02
2016-03-20T08:37:32.956Z,8.05
2016-03-20T08:38:32.708Z,8.04
2016-03-20T08:39:32.867Z,8.07
2016-03-20T08:40:33.214Z,8.07
2016-03-20T08:41:33.341Z,8
2016-03-20T08:42:32.688Z,8
2016-03-20T08:43:32.658Z,8.02
2016-03-20T08:44:32.661Z,7.97
2016-03-20T08:45:32.696Z,8.04
2016-03-20T08:46:32.652Z,8.08
2016-03-20T08:47:32.669Z,8
2016-03-20T08:48:32.672Z,7.97
2016-03-20T08:49:32.660Z,8.05
2016-03-20T08:50:32.630Z,8.01
2016-03-20T08:51:32.649Z,8.08
2016-03-20T08:52:32.636Z,8.18
2016-03-20T08:53:32.623Z,8.25
2016-03-20T08:54:32.626Z,8.16
2016-03-20T08:55:32.598Z,8.23
2016-03-20T08:56:32.585Z,8.18
2016-03-20T08:57:32.587Z,8.22
2016-03-20T08:58:32.621Z,8.36
2016-03-20T08:59:32.593Z,8.33
2016-03-20T09:00:32.611Z,8.34
2016-03-20T09:01:32.567Z,8.36
2016-03-20T09:02:32.647Z,8.36
2016-03-20T09:03:32.573Z,8.38
2016-03-20T09:04:32.559Z,8.45
2016-03-20T09:05:32.530Z,8.41
2016-03-20T09:06:32.408Z,8.43
2016-03-20T09:07:32.536Z,8.53
2016-03-20T09:08:32.539Z,8.61
2016-03-20T09:09:32.525Z,8.58
2016-03-20T09:10:32.528Z,8.71
2016-03-20T09:11:32.531Z,8.66
2016-03-20T09:12:32.519Z,8.74
2016-03-20T09:13:32.505Z,8.73
2016-03-20T09:14:32.508Z,8.76
2016-03-20T09:15:32.495Z,8.71
2016-03-20T09:16:32.513Z,8.8
2016-03-20T09:17:31.797Z,8.86
2016-03-20T09:18:32.503Z,8.96
2016-03-20T09:19:32.474Z,8.98
2016-03-20T09:20:32.477Z,9.05
2016-03-20T09:21:32.480Z,9.15
2016-03-20T09:22:32.466Z,9.2
2016-03-20T09:23:32.454Z,9.24
2016-03-20T09:24:32.457Z,9.26
2016-03-20T09:25:32.459Z,9.33
2016-03-20T09:26:32.462Z,9.23
2016-03-20T09:27:32.434Z,9.32
2016-03-20T09:28:32.451Z,9.29
2016-03-20T09:29:32.424Z,9.21
2016-03-20T09:30:32.442Z,9.29
2016-03-20T09:31:32.444Z,9.2
2016-03-20T09:32:32.448Z,9.2
2016-03-20T09:33:32.403Z,9.23
2016-03-20T09:34:32.436Z,9.36
2016-03-20T09:35:32.392Z,9.2
2016-03-20T09:36:32.411Z,9.29
2016-03-20T09:37:32.445Z,9.26
2016-03-20T09:38:32.385Z,9.14
2016-03-20T09:39:32.387Z,9.31
2016-03-20T09:40:32.375Z,9.29
2016-03-20T09:41:33.503Z,9.08
2016-03-20T09:42:47.458Z,9.15
2016-03-20T09:43:32.366Z,9.11
2016-03-20T09:44:32.636Z,9.15
2016-03-20T09:45:32.935Z,9.15
2016-03-20T09:46:32.360Z,9.21
2016-03-20T09:47:32.363Z,9.15
2016-03-20T09:48:32.349Z,9.1
2016-03-20T09:49:32.336Z,9.11
2016-03-20T09:50:32.714Z,9.14
2016-03-20T09:51:47.420Z,9.15
2016-03-20T09:52:32.485Z,9.23
2016-03-20T09:53:32.332Z,9.26
2016-03-20T09:54:32.866Z,9.24
2016-03-20T09:55:32.337Z,9.18
2016-03-20T09:56:32.293Z,9.17
2016-03-20T09:57:33.499Z,9.2
2016-03-20T09:58:32.298Z,9.18
2016-03-20T09:59:32.316Z,9.18
2016-03-20T10:00:32.272Z,9.21
2016-03-20T10:01:32.306Z,9.15
2016-03-20T10:02:32.340Z,9.08
2016-03-20T10:03:32.265Z,9.1
2016-03-20T10:04:32.283Z,9.04
2016-03-20T10:05:32.286Z,9.04
2016-03-20T10:06:32.257Z,9.05
2016-03-20T10:07:32.244Z,9.11
2016-03-20T10:08:32.247Z,9.11
2016-03-20T10:09:32.249Z,9.18
2016-03-20T10:10:32.237Z,9.18
2016-03-20T10:11:32.239Z,9.29
2016-03-20T10:12:32.226Z,9.32
2016-03-20T10:13:32.229Z,9.31
2016-03-20T10:14:32.247Z,9.35
2016-03-20T10:15:32.234Z,9.35
2016-03-20T10:16:32.205Z,9.31
2016-03-20T10:17:32.208Z,9.43
2016-03-20T10:18:32.196Z,9.4
2016-03-20T10:19:32.198Z,9.4
2016-03-20T10:20:32.202Z,9.39
2016-03-20T10:21:32.188Z,9.43
2016-03-20T10:22:32.191Z,9.43
2016-03-20T10:23:32.194Z,9.5
2016-03-20T10:24:32.180Z,9.36
2016-03-20T10:25:32.183Z,9.36
2016-03-20T10:26:32.186Z,9.43
2016-03-20T10:27:32.016Z,9.5
2016-03-20T10:28:32.160Z,9.47
2016-03-20T10:29:32.163Z,9.5
2016-03-20T10:30:32.150Z,9.58
2016-03-20T10:31:32.152Z,9.61
2016-03-20T10:32:32.140Z,9.6
2016-03-20T10:33:32.143Z,9.56
2016-03-20T10:34:32.145Z,9.64
2016-03-20T10:35:32.148Z,9.64
2016-03-20T10:36:32.119Z,9.6
2016-03-20T10:37:32.107Z,9.64
2016-03-20T10:38:32.109Z,9.58
2016-03-20T10:39:32.127Z,9.75
2016-03-20T10:40:32.114Z,9.76
2016-03-20T10:41:32.101Z,9.84
2016-03-20T10:42:32.088Z,9.9
2016-03-20T10:43:32.091Z,9.89
2016-03-20T10:44:32.109Z,9.79
2016-03-20T10:45:32.081Z,9.93
2016-03-20T10:46:32.099Z,10.02
2016-03-20T10:47:32.086Z,9.99
2016-03-20T10:48:32.089Z,10.04
2016-03-20T10:49:32.075Z,10.07
2016-03-20T10:50:32.078Z,10.11
2016-03-20T10:51:32.066Z,10.17
2016-03-20T10:52:32.068Z,10.18
2016-03-20T10:53:32.056Z,10.22
2016-03-20T10:54:32.058Z,10.18
2016-03-20T10:55:32.060Z,10.22
2016-03-20T10:56:32.063Z,10.26
2016-03-20T10:57:32.035Z,10.32
2016-03-20T10:58:32.037Z,10.3
2016-03-20T10:59:32.024Z,10.34
2016-03-20T11:00:32.277Z,10.36
2016-03-20T11:01:46.202Z,10.4
2016-03-20T11:02:32.189Z,10.42
2016-03-20T11:03:46.207Z,10.44
2016-03-20T11:04:32.570Z,10.52
2016-03-20T11:05:33.650Z,10.53
2016-03-20T11:06:33.731Z,10.53
2016-03-20T11:07:33.342Z,10.53
2016-03-20T11:08:32.845Z,10.6
2016-03-20T11:09:32.005Z,10.7
2016-03-20T11:10:32.445Z,10.73
2016-03-20T11:11:32.744Z,10.76
2016-03-20T11:12:32.247Z,10.91
2016-03-20T11:13:31.984Z,11
2016-03-20T11:15:33.942Z,10.92
2016-03-20T11:16:32.773Z,10.99
2016-03-20T11:17:33.120Z,11.04
2016-03-20T11:18:31.966Z,11
2016-03-20T11:19:31.969Z,10.94
2016-03-20T11:20:32.113Z,10.89
2016-03-20T11:21:31.943Z,10.99
2016-03-20T11:22:31.961Z,10.84
2016-03-20T11:23:31.949Z,10.81
2016-03-20T11:24:31.966Z,10.7
2016-03-20T11:25:31.955Z,10.68
2016-03-20T11:26:31.957Z,10.71
2016-03-20T11:27:31.944Z,10.68
2016-03-20T11:28:31.962Z,10.68
2016-03-20T11:29:31.965Z,10.67
2016-03-20T11:30:31.936Z,10.67
2016-03-20T11:31:31.923Z,10.78
2016-03-20T11:32:31.910Z,10.79
2016-03-20T11:33:31.929Z,10.73
2016-03-20T11:34:31.932Z,10.78
2016-03-20T11:35:31.934Z,10.82
2016-03-20T11:36:31.920Z,10.86
2016-03-20T11:37:31.924Z,10.92
2016-03-20T11:38:31.911Z,11.02
2016-03-20T11:39:31.913Z,10.94
2016-03-20T11:40:31.916Z,11.03
2016-03-20T11:41:34.419Z,11.09
2016-03-20T11:42:31.906Z,11.1
2016-03-20T11:43:31.893Z,11.14
2016-03-20T11:44:31.881Z,11.14
2016-03-20T11:45:31.883Z,11.09
2016-03-20T11:46:31.900Z,11.03
2016-03-20T11:47:31.872Z,10.96
2016-03-20T11:48:31.906Z,11
2016-03-20T11:49:31.894Z,11
2016-03-20T11:50:31.880Z,10.91
2016-03-20T11:51:31.883Z,11.02
2016-03-20T11:52:31.870Z,10.85
2016-03-20T11:53:31.872Z,10.76
2016-03-20T11:54:31.860Z,10.78
2016-03-20T11:55:31.862Z,10.63
2016-03-20T11:56:31.849Z,10.55
2016-03-20T11:57:31.868Z,10.38
2016-03-20T11:58:31.855Z,10.38
2016-03-20T11:59:31.858Z,10.25
2016-03-20T12:00:31.861Z,10.18
2016-03-20T12:01:31.848Z,10.18
2016-03-20T12:02:31.851Z,10.07
2016-03-20T12:03:31.838Z,10.08
2016-03-20T12:04:31.840Z,10.12
2016-03-20T12:05:31.811Z,10.04
2016-03-20T12:06:31.814Z,10.2
2016-03-20T12:07:31.817Z,10.22
2016-03-20T12:08:31.819Z,10.23
2016-03-20T12:09:31.807Z,10.33
2016-03-20T12:10:31.809Z,10.36
2016-03-20T12:11:31.812Z,10.23
2016-03-20T12:12:31.799Z,10.25
2016-03-20T12:13:31.802Z,10.23
2016-03-20T12:14:31.804Z,10.18
2016-03-20T12:15:31.806Z,10.17
2016-03-20T12:16:31.778Z,10.26
2016-03-20T12:17:31.797Z,10.32
2016-03-20T12:18:31.783Z,10.33
2016-03-20T12:19:34.083Z,10.27
2016-03-20T12:20:32.805Z,10.32
2016-03-20T12:21:31.761Z,10.23
2016-03-20T12:22:31.763Z,10.27
2016-03-20T12:23:34.907Z,10.17
2016-03-20T12:24:33.160Z,10.23
2016-03-20T12:25:47.412Z,10.2
2016-03-20T12:26:31.759Z,10.17
2016-03-20T12:27:32.589Z,10.23
2016-03-20T12:28:31.748Z,10.23
2016-03-20T12:29:32.533Z,10.23
2016-03-20T12:30:32.597Z,10.12
2016-03-20T12:31:31.865Z,10.2
2016-03-20T12:34:33.655Z,10.18
2016-03-20T12:35:32.549Z,10.22
2016-03-20T12:36:33.051Z,10.26
2016-03-20T12:37:31.710Z,10.3
2016-03-20T12:38:31.760Z,10.22
2016-03-20T12:39:31.965Z,10.22
2016-03-20T12:40:31.703Z,10.18
2016-03-20T12:41:31.706Z,10.2
2016-03-20T12:42:31.709Z,10.18
2016-03-20T12:43:31.726Z,10.12
2016-03-20T12:44:31.681Z,10.09
2016-03-20T12:45:31.700Z,10.07
2016-03-20T12:46:31.672Z,10.07
2016-03-20T12:47:31.675Z,10.05
2016-03-20T12:48:31.662Z,10.15
2016-03-20T12:49:31.680Z,10.2
2016-03-20T12:50:31.651Z,10.22
2016-03-20T12:51:31.654Z,10.15
2016-03-20T12:52:31.688Z,10.18
2016-03-20T12:53:31.659Z,10.2
2016-03-20T12:54:31.662Z,10.15
2016-03-20T12:55:31.664Z,10.22
2016-03-20T12:56:31.636Z,10.23
2016-03-20T12:57:31.669Z,10.4
2016-03-20T12:58:31.641Z,10.41
2016-03-20T12:59:31.644Z,10.53
2016-03-20T13:00:31.631Z,10.55
2016-03-20T13:01:31.634Z,10.68
2016-03-20T13:02:31.621Z,10.78
2016-03-20T13:03:31.608Z,10.73
2016-03-20T13:04:31.626Z,10.86
2016-03-20T13:05:31.613Z,10.92
2016-03-20T13:06:31.444Z,11.06
2016-03-20T13:07:31.618Z,11.22
2016-03-20T13:08:31.622Z,11.28
2016-03-20T13:09:31.609Z,11.46
2016-03-20T13:10:31.596Z,11.54
2016-03-20T13:11:31.598Z,11.6
2016-03-20T13:12:31.601Z,11.54
2016-03-20T13:13:31.588Z,11.39
2016-03-20T13:14:31.606Z,11.32
2016-03-20T13:15:31.578Z,11.19
2016-03-20T13:16:31.581Z,11.17
2016-03-20T13:17:31.584Z,11.1
2016-03-20T13:18:31.570Z,11.1
2016-03-20T13:19:31.589Z,11.02
2016-03-20T13:20:31.576Z,11.07
2016-03-20T13:21:31.578Z,11.1
2016-03-20T13:22:31.566Z,11.21
2016-03-20T13:23:31.569Z,11.29